Aérodrome :
LOGIN :

S'inscrire | Disclaimer

   EN    FR    IT 

 










Légende :    VFR   VFR Marginal   IFR   IFR Intensif   IFR Très Intensif
Visi : 
Plafond : 
>= 8 km
>= 3000ft
5 à 8 km
1000 à 3000 ft
1500m à 5 km
500 à 1000 ft
800 à 1500m
200 à 500 ft
< 800m
< 200 ft
Symboles :   Orages  Brouillard  Fortes neiges  Fortes précipitations  Vent > 20 kt
SIGMETs :   Divers  Orages  Givrage  Turbulence  Onde Orograph.  Cendres Volcan.






- Altitude de l'aérodrome : 325 ft
- Code IATA : POX


LFPT - Pontoise

DERNIER METAR :
  • 031600Z AUTO 18012KT 9999 -RA BKN010 OVC015 07/05 Q0988

METARs EXPIRÉS :
  • 031530Z AUTO 18011KT 9999 BKN010 OVC014 06/05 Q0989
  • 031500Z AUTO 18011KT 9999 -RA OVC010 06/05 Q0990
  • 031430Z AUTO 18011KT 9999 -RA BKN011 OVC017 06/05 Q0991
  • 031400Z AUTO 18011KT 9999 -RA BKN014 BKN019 OVC024 06/05 Q0992
  • 031330Z AUTO 18012KT 9999 -RA BKN013 BKN018 OVC033 06/05 Q0993

TAF N/A
ATIS : +33 1 30 30 52 08



MET'MAP, la Météo Aéronautique d'un coup d'oeil ! - Copyright ORBIFLY Décembre 2007 - Disclaimer

ORBIFLY MET'MAP TEAM :

Programmation & Développement : Alexandra Zaïnal
Sur une idée originale de : Baudouin d'Aumeries
Assistance à la programmation : Marc-Olivier Méhu
Soutien technique & logistique : Manuel Goepfert

Contact : metmap@orbifly.com




SOURCES & CREDITS :

   NOAA